Airport Name : Vijayawada

Other Name : Vijayawada

ICAO : VOBZ

IATA : VGA

FAA :

Latitude : 16.530433

Longitude : 80.796847

Country : India

Local Date and Time : 27 Jan 2022 04:05

 

TAF (Terminal Aerodrome Forecast)

TAF VOBZ 262000Z 2621/2706 12005KT 3000 BR SCT020 SCT025 TEMPO 2621/2703 VRB03KT 0800 MIFG SCT010 SCT100 BECMG 2704/2706 10007KT 5000 HZ FEW015 SCT025

 

METAR (METeorological Aerodrome Report)

To Charter a Jet Click here.